Great Neck Estates, New York
Current Conditions -  °F | °C
As of 4:51 AM on Thursday 18 Dec 2014 (Local Time) from KLGA Reporting Station
Scattered Clouds Scattered Clouds  
Wind Chill: -1°   Ceiling: Unl
Heat Index:   Visibility: 10mi
Dew Point: -4°   Wind: 20mph
Humidity: 55%   Direction: 300°WNW
Pressure: 29.91"   Gusts: 29mph
Location:  40.786°N, 73.7291°W
Report Text: KLGA 180951Z 30017G25KT 10SM SCT100 04/M04 A2991 RMK AO2 PK WND 30030/0852 SLP127 T00391044
Loading
Personal Weather Stations






























Interactive Weather Map New forecast layout! Learn more

10-Day Weather Forecast

Advertisements
Track Severe Weather on mobile